createdAt,value
2016-10-04T00:00:02.928Z,10.81
2016-10-04T00:00:24.642Z,10.83
2016-10-04T00:00:46.359Z,10.88
2016-10-04T00:01:08.069Z,10.85
2016-10-04T00:01:29.782Z,10.84
2016-10-04T00:01:56.272Z,10.82
2016-10-04T00:02:17.990Z,10.82
2016-10-04T00:02:39.699Z,10.81
2016-10-04T00:03:04.322Z,10.87
2016-10-04T00:03:26.030Z,10.84
2016-10-04T00:03:47.751Z,10.86
2016-10-04T00:04:09.462Z,10.95
2016-10-04T00:04:31.199Z,10.97
2016-10-04T00:04:52.909Z,10.96
2016-10-04T00:05:14.638Z,10.95
2016-10-04T00:05:36.371Z,10.94
2016-10-04T00:05:58.070Z,10.91
2016-10-04T00:06:19.800Z,10.91
2016-10-04T00:06:41.523Z,10.91
2016-10-04T00:07:03.237Z,10.89
2016-10-04T00:07:24.945Z,10.95
2016-10-04T00:07:46.671Z,10.92
2016-10-04T00:08:08.380Z,10.95
2016-10-04T00:08:30.091Z,10.90
2016-10-04T00:08:51.808Z,10.88
2016-10-04T00:09:13.530Z,10.90
2016-10-04T00:09:35.251Z,10.92
2016-10-04T00:09:56.985Z,10.97
2016-10-04T00:10:18.699Z,10.95
2016-10-04T00:10:40.408Z,10.92
2016-10-04T00:11:02.121Z,10.88
2016-10-04T00:11:23.830Z,10.87
2016-10-04T00:11:45.545Z,10.86
2016-10-04T00:12:07.256Z,10.83
2016-10-04T00:12:28.965Z,10.86
2016-10-04T00:12:50.691Z,10.84
2016-10-04T00:13:12.398Z,10.81
2016-10-04T00:13:34.106Z,10.82
2016-10-04T00:13:55.818Z,10.85
2016-10-04T00:14:17.527Z,10.84
2016-10-04T00:14:39.246Z,10.88
2016-10-04T00:15:00.958Z,10.89
2016-10-04T00:15:22.737Z,10.94
2016-10-04T00:15:44.444Z,11.00
2016-10-04T00:16:06.153Z,10.95
2016-10-04T00:16:27.867Z,10.89
2016-10-04T00:16:49.577Z,10.86
2016-10-04T00:17:11.288Z,10.87
2016-10-04T00:17:33.005Z,10.87
2016-10-04T00:17:54.725Z,10.87
2016-10-04T00:18:16.440Z,10.87
2016-10-04T00:18:38.154Z,10.73
2016-10-04T00:18:59.866Z,10.60
2016-10-04T00:19:21.576Z,10.50
2016-10-04T00:19:43.289Z,10.47
2016-10-04T00:20:04.995Z,10.49
2016-10-04T00:20:26.706Z,10.53
2016-10-04T00:20:48.427Z,10.57
2016-10-04T00:21:10.140Z,10.60
2016-10-04T00:21:31.860Z,10.65
2016-10-04T00:21:53.576Z,10.72
2016-10-04T00:22:15.286Z,10.73
2016-10-04T00:22:37.000Z,10.69
2016-10-04T00:22:58.722Z,10.64
2016-10-04T00:23:20.430Z,10.59
2016-10-04T00:23:42.139Z,10.59
2016-10-04T00:24:03.855Z,10.71
2016-10-04T00:24:25.574Z,10.68
2016-10-04T00:24:47.281Z,10.63
2016-10-04T00:25:08.993Z,10.60
2016-10-04T00:25:30.713Z,10.57
2016-10-04T00:25:52.422Z,10.54
2016-10-04T00:26:40.605Z,10.57
2016-10-04T00:27:12.870Z,10.55
2016-10-04T00:27:34.582Z,10.56
2016-10-04T00:27:56.289Z,10.64
2016-10-04T00:28:17.998Z,10.71
2016-10-04T00:28:39.702Z,10.74
2016-10-04T00:29:01.416Z,10.70
2016-10-04T00:29:23.144Z,10.67
2016-10-04T00:29:44.842Z,10.61
2016-10-04T00:30:06.549Z,10.52
2016-10-04T00:30:28.276Z,10.51
2016-10-04T00:30:49.990Z,10.54
2016-10-04T00:31:11.707Z,10.61
2016-10-04T00:31:33.419Z,10.62
2016-10-04T00:31:55.149Z,10.61
2016-10-04T00:32:16.860Z,10.54
2016-10-04T00:32:38.572Z,10.53
2016-10-04T00:33:00.281Z,10.48
2016-10-04T00:33:22.001Z,10.49
2016-10-04T00:33:43.716Z,10.53
2016-10-04T00:34:05.427Z,10.53
2016-10-04T00:34:27.139Z,10.52
2016-10-04T00:34:48.847Z,10.56
2016-10-04T00:35:10.561Z,10.49
2016-10-04T00:35:32.285Z,10.46
2016-10-04T00:35:54.001Z,10.48
2016-10-04T00:36:15.713Z,10.51
2016-10-04T00:36:37.429Z,10.51
2016-10-04T00:36:59.139Z,10.50
2016-10-04T00:37:20.847Z,10.53
2016-10-04T00:37:42.561Z,10.56
2016-10-04T00:38:04.277Z,10.58
2016-10-04T00:38:25.986Z,10.61
2016-10-04T00:38:47.703Z,10.66
2016-10-04T00:39:09.412Z,10.68
2016-10-04T00:39:35.895Z,10.72
2016-10-04T00:39:57.616Z,10.66
2016-10-04T00:40:19.343Z,10.60
2016-10-04T00:40:41.052Z,10.59
2016-10-04T00:41:02.759Z,10.63
2016-10-04T00:41:24.472Z,10.70
2016-10-04T00:41:46.197Z,10.76
2016-10-04T00:42:08.907Z,10.70
2016-10-04T00:43:25.595Z,10.40
2016-10-04T00:43:47.297Z,10.43
2016-10-04T00:44:09.025Z,10.50
2016-10-04T00:44:33.566Z,10.56
2016-10-04T00:44:55.283Z,10.65
2016-10-04T00:45:16.998Z,10.68
2016-10-04T00:45:38.724Z,10.63
2016-10-04T00:46:00.436Z,10.60
2016-10-04T00:46:22.148Z,10.58
2016-10-04T00:46:43.860Z,10.62
2016-10-04T00:47:05.569Z,10.60
2016-10-04T00:47:27.284Z,10.59
2016-10-04T00:47:48.997Z,10.65
2016-10-04T00:48:10.714Z,10.71
2016-10-04T00:48:32.419Z,10.75
2016-10-04T00:48:54.129Z,10.77
2016-10-04T00:49:15.846Z,10.86
2016-10-04T00:49:37.559Z,10.81
2016-10-04T00:49:59.273Z,10.70
2016-10-04T00:50:20.988Z,10.64
2016-10-04T00:50:42.696Z,10.62
2016-10-04T00:51:04.397Z,10.60
2016-10-04T00:51:26.109Z,10.57
2016-10-04T00:51:47.820Z,10.57
2016-10-04T00:52:09.536Z,10.60
2016-10-04T00:52:31.261Z,10.62
2016-10-04T00:52:52.967Z,10.62
2016-10-04T00:53:14.679Z,10.58
2016-10-04T00:53:36.395Z,10.60
2016-10-04T00:53:58.106Z,10.60
2016-10-04T00:54:19.815Z,10.63
2016-10-04T00:54:41.526Z,10.65
2016-10-04T00:55:03.238Z,10.60
2016-10-04T00:55:24.953Z,10.62
2016-10-04T00:55:46.664Z,10.63
2016-10-04T00:56:08.370Z,10.63
2016-10-04T00:56:30.083Z,10.67
2016-10-04T00:56:51.796Z,10.71
2016-10-04T00:57:13.516Z,10.73
2016-10-04T00:57:35.228Z,10.67
2016-10-04T00:57:56.951Z,10.65
2016-10-04T00:58:18.660Z,10.58
2016-10-04T00:58:40.365Z,10.53
2016-10-04T00:59:02.079Z,10.48
2016-10-04T00:59:23.786Z,10.39
2016-10-04T00:59:45.491Z,10.33
2016-10-04T01:00:07.205Z,10.31
2016-10-04T01:00:28.914Z,10.36
2016-10-04T01:00:50.631Z,10.46
2016-10-04T01:01:12.348Z,10.49
2016-10-04T01:01:34.064Z,10.57
2016-10-04T01:01:55.779Z,10.58
2016-10-04T01:02:17.493Z,10.57
2016-10-04T01:02:39.203Z,10.58
2016-10-04T01:03:00.914Z,10.58
2016-10-04T01:03:22.627Z,10.58
2016-10-04T01:03:44.340Z,10.61
2016-10-04T01:04:06.051Z,10.61
2016-10-04T01:04:27.769Z,10.61
2016-10-04T01:04:49.481Z,10.62
2016-10-04T01:05:11.199Z,10.59
2016-10-04T01:05:32.909Z,10.58
2016-10-04T01:05:54.618Z,10.61
2016-10-04T01:06:16.326Z,10.64
2016-10-04T01:06:38.035Z,10.60
2016-10-04T01:06:59.756Z,10.60
2016-10-04T01:07:21.472Z,10.62
2016-10-04T01:07:43.184Z,10.54
2016-10-04T01:08:04.893Z,10.50
2016-10-04T01:08:26.613Z,10.42
2016-10-04T01:08:48.322Z,10.40
2016-10-04T01:09:10.043Z,10.47
2016-10-04T01:09:31.749Z,10.41
2016-10-04T01:09:53.455Z,10.36
2016-10-04T01:10:15.187Z,10.30
2016-10-04T01:10:36.905Z,10.30
2016-10-04T01:10:58.621Z,10.28
2016-10-04T01:11:20.330Z,10.30
2016-10-04T01:11:42.041Z,10.37
2016-10-04T01:12:03.756Z,10.48
2016-10-04T01:12:25.470Z,10.46
2016-10-04T01:12:47.187Z,10.52
2016-10-04T01:13:08.899Z,10.51
2016-10-04T01:13:30.613Z,10.52
2016-10-04T01:13:52.330Z,10.56
2016-10-04T01:14:14.045Z,10.55
2016-10-04T01:14:35.757Z,10.53
2016-10-04T01:14:57.465Z,10.52
2016-10-04T01:15:19.184Z,10.47
2016-10-04T01:15:40.892Z,10.45
2016-10-04T01:16:02.607Z,10.47
2016-10-04T01:16:24.329Z,10.49
2016-10-04T01:16:46.038Z,10.53
2016-10-04T01:17:07.751Z,10.58
2016-10-04T01:17:29.456Z,10.50
2016-10-04T01:17:51.175Z,10.47
2016-10-04T01:18:12.893Z,10.46
2016-10-04T01:18:34.605Z,10.40
2016-10-04T01:18:56.321Z,10.39
2016-10-04T01:19:18.029Z,10.36
2016-10-04T01:19:39.736Z,10.31
2016-10-04T01:20:01.445Z,10.32
2016-10-04T01:20:23.159Z,10.32
2016-10-04T01:20:44.863Z,10.32
2016-10-04T01:21:06.579Z,10.31
2016-10-04T01:21:28.290Z,10.22
2016-10-04T01:21:50.000Z,10.17
2016-10-04T01:22:11.726Z,10.14
2016-10-04T01:22:33.437Z,10.07
2016-10-04T01:22:55.146Z,10.08
2016-10-04T01:23:16.857Z,10.04
2016-10-04T01:23:38.567Z,10.01
2016-10-04T01:24:00.275Z,10.03
2016-10-04T01:24:21.986Z,10.03
2016-10-04T01:24:43.702Z,10.00
2016-10-04T01:25:05.415Z,10.02
2016-10-04T01:25:27.133Z,10.07
2016-10-04T01:25:48.847Z,10.13
2016-10-04T01:26:10.568Z,10.16
2016-10-04T01:26:32.274Z,10.16
2016-10-04T01:26:53.987Z,10.17
2016-10-04T01:27:15.696Z,10.17
2016-10-04T01:27:37.413Z,10.24
2016-10-04T01:27:59.119Z,10.25
2016-10-04T01:28:20.840Z,10.22
2016-10-04T01:28:42.544Z,10.17
2016-10-04T01:29:04.252Z,10.19
2016-10-04T01:29:25.970Z,10.24
2016-10-04T01:29:47.676Z,10.30
2016-10-04T01:30:09.382Z,10.25
2016-10-04T01:30:31.103Z,10.27
2016-10-04T01:30:52.818Z,10.27
2016-10-04T01:31:14.543Z,10.28
2016-10-04T01:31:36.255Z,10.29
2016-10-04T01:32:02.733Z,10.29
2016-10-04T01:32:29.247Z,10.28
2016-10-04T01:32:50.949Z,10.30
2016-10-04T01:33:12.667Z,10.26
2016-10-04T01:33:34.375Z,10.24
2016-10-04T01:33:56.086Z,10.28
2016-10-04T01:34:17.803Z,10.32
2016-10-04T01:34:39.510Z,10.34
2016-10-04T01:35:01.219Z,10.34
2016-10-04T01:35:22.931Z,10.31
2016-10-04T01:35:51.946Z,10.30
2016-10-04T01:36:13.658Z,10.28
2016-10-04T01:36:35.370Z,10.30
2016-10-04T01:36:57.084Z,10.31
2016-10-04T01:37:18.799Z,10.32
2016-10-04T01:37:40.506Z,10.24
2016-10-04T01:38:06.989Z,10.17
2016-10-04T01:38:33.474Z,10.16
2016-10-04T01:38:55.191Z,10.17
2016-10-04T01:39:16.901Z,10.15
2016-10-04T01:39:38.611Z,10.15
2016-10-04T01:40:09.016Z,10.21
2016-10-04T01:40:30.729Z,10.29
2016-10-04T01:40:52.444Z,10.38
2016-10-04T01:41:14.156Z,10.38
2016-10-04T01:41:35.871Z,10.37
2016-10-04T01:41:57.584Z,10.35
2016-10-04T01:42:19.318Z,10.35
2016-10-04T01:42:41.036Z,10.35
2016-10-04T01:43:02.750Z,10.34
2016-10-04T01:43:24.464Z,10.35
2016-10-04T01:43:47.171Z,10.34
2016-10-04T01:44:08.886Z,10.31
2016-10-04T01:44:30.598Z,10.29
2016-10-04T01:44:52.312Z,10.23
2016-10-04T01:45:14.027Z,10.22
2016-10-04T01:45:35.743Z,10.20
2016-10-04T01:45:57.462Z,10.25
2016-10-04T01:46:19.164Z,10.30
2016-10-04T01:46:40.879Z,10.32
2016-10-04T01:47:02.599Z,10.30
2016-10-04T01:47:24.309Z,10.26
2016-10-04T01:47:46.024Z,10.25
2016-10-04T01:48:07.743Z,10.33
2016-10-04T01:48:29.474Z,10.31
2016-10-04T01:48:51.189Z,10.31
2016-10-04T01:49:12.909Z,10.38
2016-10-04T01:49:34.630Z,10.42
2016-10-04T01:49:56.384Z,10.40
2016-10-04T01:50:18.108Z,10.46
2016-10-04T01:50:39.821Z,10.50
2016-10-04T01:51:01.548Z,10.45
2016-10-04T01:51:23.260Z,10.39
2016-10-04T01:51:44.984Z,10.34
2016-10-04T01:52:06.703Z,10.33
2016-10-04T01:52:28.415Z,10.33
2016-10-04T01:52:54.905Z,10.30
2016-10-04T01:53:16.612Z,10.22
2016-10-04T01:53:38.322Z,10.22
2016-10-04T01:54:00.035Z,10.23
2016-10-04T01:54:21.750Z,10.22
2016-10-04T01:54:48.232Z,10.25
2016-10-04T01:55:09.941Z,10.33
2016-10-04T01:55:31.659Z,10.38
2016-10-04T01:55:53.371Z,10.42
2016-10-04T01:56:24.634Z,10.49
2016-10-04T01:56:46.369Z,10.50
2016-10-04T01:57:08.075Z,10.51
2016-10-04T01:57:29.787Z,10.50
2016-10-04T01:57:51.500Z,10.52
2016-10-04T01:58:13.223Z,10.51
2016-10-04T01:58:34.933Z,10.49
2016-10-04T01:58:56.646Z,10.43
2016-10-04T01:59:18.372Z,10.41
2016-10-04T01:59:40.094Z,10.38
2016-10-04T02:00:01.831Z,10.32
2016-10-04T02:00:23.557Z,10.28
2016-10-04T02:00:45.269Z,10.25
2016-10-04T02:01:06.984Z,10.26
2016-10-04T02:01:28.702Z,10.30
2016-10-04T02:01:50.412Z,10.37
2016-10-04T02:02:16.901Z,10.41
2016-10-04T02:02:38.619Z,10.31
2016-10-04T02:03:00.327Z,10.24
2016-10-04T02:03:22.040Z,10.23
2016-10-04T02:03:43.746Z,10.25
2016-10-04T02:04:05.457Z,10.28
2016-10-04T02:04:27.166Z,10.32
2016-10-04T02:04:48.875Z,10.33
2016-10-04T02:05:10.583Z,10.34
2016-10-04T02:05:32.296Z,10.37
2016-10-04T02:05:54.008Z,10.33
2016-10-04T02:06:15.724Z,10.25
2016-10-04T02:06:37.444Z,10.21
2016-10-04T02:06:59.154Z,10.20
2016-10-04T02:07:28.813Z,10.20
2016-10-04T02:07:50.519Z,10.27
2016-10-04T02:08:12.231Z,10.22
2016-10-04T02:08:33.939Z,10.22
2016-10-04T02:08:55.652Z,10.19
2016-10-04T02:09:17.364Z,10.20
2016-10-04T02:09:39.072Z,10.27
2016-10-04T02:10:00.787Z,10.27
2016-10-04T02:10:22.502Z,10.29
2016-10-04T02:10:44.217Z,10.32
2016-10-04T02:11:05.930Z,10.31
2016-10-04T02:11:27.639Z,10.31
2016-10-04T02:11:49.351Z,10.36
2016-10-04T02:12:11.065Z,10.38
2016-10-04T02:12:32.783Z,10.45
2016-10-04T02:12:54.500Z,10.41
2016-10-04T02:13:16.208Z,10.41
2016-10-04T02:13:37.920Z,10.38
2016-10-04T02:13:59.640Z,10.39
2016-10-04T02:14:22.350Z,10.38
2016-10-04T02:14:44.068Z,10.31
2016-10-04T02:15:06.780Z,10.25
2016-10-04T02:15:28.496Z,10.19
2016-10-04T02:15:50.210Z,10.15
2016-10-04T02:16:16.704Z,10.15
2016-10-04T02:16:38.435Z,10.16
2016-10-04T02:17:04.918Z,10.13
2016-10-04T02:17:26.631Z,10.15
2016-10-04T02:17:48.363Z,10.22
2016-10-04T02:18:10.074Z,10.30
2016-10-04T02:18:31.781Z,10.35
2016-10-04T02:18:53.487Z,10.39
2016-10-04T02:19:15.212Z,10.47
2016-10-04T02:19:36.926Z,10.46
2016-10-04T02:19:58.642Z,10.48
2016-10-04T02:20:20.357Z,10.46
2016-10-04T02:20:42.062Z,10.41
2016-10-04T02:21:03.773Z,10.42
2016-10-04T02:21:25.488Z,10.39
2016-10-04T02:21:47.202Z,10.40
2016-10-04T02:22:08.919Z,10.36
2016-10-04T02:22:30.634Z,10.28
2016-10-04T02:22:52.349Z,10.26
2016-10-04T02:23:14.054Z,10.25
2016-10-04T02:23:35.766Z,10.30
2016-10-04T02:23:57.482Z,10.31
2016-10-04T02:24:19.208Z,10.36
2016-10-04T02:24:40.908Z,10.35
2016-10-04T02:25:02.619Z,10.35
2016-10-04T02:25:24.328Z,10.40
2016-10-04T02:25:46.040Z,10.45
2016-10-04T02:26:07.746Z,10.42
2016-10-04T02:26:29.457Z,10.36
2016-10-04T02:26:51.171Z,10.32
2016-10-04T02:27:12.881Z,10.27
2016-10-04T02:27:34.595Z,10.24
2016-10-04T02:27:56.307Z,10.29
2016-10-04T02:28:18.025Z,10.22
2016-10-04T02:28:39.732Z,10.20
2016-10-04T02:29:01.443Z,10.25
2016-10-04T02:29:23.162Z,10.26
2016-10-04T02:29:44.883Z,10.28
2016-10-04T02:30:06.604Z,10.20
2016-10-04T02:30:28.317Z,10.12
2016-10-04T02:30:50.023Z,10.10
2016-10-04T02:31:11.735Z,10.16
2016-10-04T02:31:33.445Z,10.19
2016-10-04T02:31:55.154Z,10.22
2016-10-04T02:32:16.867Z,10.25
2016-10-04T02:32:38.586Z,10.29
2016-10-04T02:33:00.295Z,10.27
2016-10-04T02:33:22.010Z,10.28
2016-10-04T02:33:43.735Z,10.29
2016-10-04T02:34:05.498Z,10.30
2016-10-04T02:34:27.206Z,10.32
2016-10-04T02:34:48.923Z,10.32
2016-10-04T02:35:10.639Z,10.33
2016-10-04T02:35:32.344Z,10.23
2016-10-04T02:35:54.061Z,10.21
2016-10-04T02:36:15.776Z,10.24
2016-10-04T02:36:37.482Z,10.22
2016-10-04T02:36:59.197Z,10.20
2016-10-04T02:37:20.908Z,10.09
2016-10-04T02:37:42.619Z,9.98
2016-10-04T02:38:04.329Z,9.96
2016-10-04T02:38:26.037Z,9.94
2016-10-04T02:38:47.760Z,9.95
2016-10-04T02:39:09.475Z,9.95
2016-10-04T02:39:31.184Z,9.98
2016-10-04T02:39:52.901Z,10.02
2016-10-04T02:40:14.607Z,10.01
2016-10-04T02:40:36.324Z,10.01
2016-10-04T02:40:58.035Z,10.01
2016-10-04T02:41:19.755Z,9.97
2016-10-04T02:41:41.464Z,9.96
2016-10-04T02:42:03.167Z,9.94
2016-10-04T02:42:24.892Z,9.97
2016-10-04T02:42:51.378Z,9.98
2016-10-04T02:43:13.614Z,10.06
2016-10-04T02:43:35.315Z,10.10
2016-10-04T02:43:57.023Z,10.15
2016-10-04T02:44:18.743Z,10.17
2016-10-04T02:44:40.455Z,10.11
2016-10-04T02:45:02.162Z,10.09
2016-10-04T02:45:23.870Z,10.05
2016-10-04T02:45:45.589Z,9.97
2016-10-04T02:46:07.301Z,9.91
2016-10-04T02:46:29.015Z,9.83
2016-10-04T02:46:50.727Z,9.77
2016-10-04T02:47:15.082Z,9.77
2016-10-04T02:47:36.799Z,9.75
2016-10-04T02:47:58.507Z,9.73
2016-10-04T02:48:20.216Z,9.68
2016-10-04T02:48:41.926Z,9.63
2016-10-04T02:49:03.640Z,9.62
2016-10-04T02:49:25.345Z,9.69
2016-10-04T02:49:47.054Z,9.80
2016-10-04T02:50:08.761Z,9.84
2016-10-04T02:50:30.470Z,9.93
2016-10-04T02:50:52.181Z,9.85
2016-10-04T02:51:13.889Z,9.80
2016-10-04T02:51:35.604Z,9.75
2016-10-04T02:51:57.323Z,9.73
2016-10-04T02:52:19.037Z,9.81
2016-10-04T02:52:40.737Z,9.84
2016-10-04T02:53:07.230Z,9.92
2016-10-04T02:53:28.937Z,10.01
2016-10-04T02:53:50.654Z,10.03
2016-10-04T02:54:12.364Z,10.09
2016-10-04T02:54:34.072Z,10.07
2016-10-04T02:54:55.787Z,10.04
2016-10-04T02:55:17.508Z,10.02
2016-10-04T02:55:39.220Z,9.93
2016-10-04T02:56:00.934Z,9.85
2016-10-04T02:56:22.636Z,9.84
2016-10-04T02:56:44.345Z,9.85
2016-10-04T02:57:06.054Z,9.85
2016-10-04T02:57:27.765Z,9.82
2016-10-04T02:57:49.473Z,9.84
2016-10-04T02:58:11.185Z,9.91
2016-10-04T02:58:32.899Z,10.00
2016-10-04T02:58:54.605Z,10.08
2016-10-04T02:59:39.327Z,10.09
2016-10-04T03:00:01.057Z,10.11
2016-10-04T03:00:22.746Z,10.09
2016-10-04T03:00:44.453Z,10.08
2016-10-04T03:01:06.164Z,10.08
2016-10-04T03:01:27.866Z,10.15
2016-10-04T03:01:49.573Z,10.19
2016-10-04T03:02:11.284Z,10.15
2016-10-04T03:02:32.988Z,10.15
2016-10-04T03:02:54.698Z,10.19
2016-10-04T03:03:16.407Z,10.27
2016-10-04T03:03:38.114Z,10.25
2016-10-04T03:03:59.824Z,10.28
2016-10-04T03:04:21.537Z,10.28
2016-10-04T03:04:43.251Z,10.26
2016-10-04T03:05:04.963Z,10.24
2016-10-04T03:05:26.674Z,10.23
2016-10-04T03:05:48.392Z,10.19
2016-10-04T03:06:10.109Z,10.25
2016-10-04T03:06:31.819Z,10.22
2016-10-04T03:06:53.532Z,10.16
2016-10-04T03:07:15.244Z,10.13
2016-10-04T03:07:36.955Z,10.12
2016-10-04T03:07:58.667Z,10.16
2016-10-04T03:08:20.382Z,10.18
2016-10-04T03:08:42.089Z,10.17
2016-10-04T03:09:03.793Z,10.19
2016-10-04T03:09:25.512Z,10.24
2016-10-04T03:09:47.224Z,10.27
2016-10-04T03:10:08.937Z,10.24
2016-10-04T03:10:30.654Z,10.19
2016-10-04T03:10:52.362Z,10.20
2016-10-04T03:11:14.068Z,10.18
2016-10-04T03:11:35.783Z,10.23
2016-10-04T03:11:57.497Z,10.21
2016-10-04T03:12:19.205Z,10.21
2016-10-04T03:12:40.927Z,10.22
2016-10-04T03:13:02.636Z,10.19
2016-10-04T03:13:24.347Z,10.20
2016-10-04T03:13:46.059Z,10.24
2016-10-04T03:14:07.773Z,10.24
2016-10-04T03:14:29.484Z,10.21
2016-10-04T03:14:51.189Z,10.17
2016-10-04T03:15:12.916Z,10.13
2016-10-04T03:15:34.627Z,10.14
2016-10-04T03:15:56.347Z,10.16
2016-10-04T03:16:18.064Z,10.16
2016-10-04T03:16:39.776Z,10.18
2016-10-04T03:17:01.483Z,10.15
2016-10-04T03:17:23.198Z,10.15
2016-10-04T03:17:44.918Z,10.11
2016-10-04T03:18:06.633Z,10.09
2016-10-04T03:18:28.342Z,10.09
2016-10-04T03:18:50.054Z,10.09
2016-10-04T03:19:11.769Z,10.14
2016-10-04T03:19:33.477Z,10.17
2016-10-04T03:19:55.181Z,10.16
2016-10-04T03:20:16.898Z,10.18
2016-10-04T03:20:38.615Z,10.16
2016-10-04T03:21:00.331Z,10.12
2016-10-04T03:21:22.063Z,10.08
2016-10-04T03:21:43.769Z,10.07
2016-10-04T03:22:05.478Z,10.07
2016-10-04T03:22:27.183Z,10.13
2016-10-04T03:22:53.666Z,10.18
2016-10-04T03:23:15.383Z,10.12
2016-10-04T03:23:37.103Z,10.09
2016-10-04T03:23:58.813Z,9.99
2016-10-04T03:24:20.525Z,10.01
2016-10-04T03:24:42.235Z,10.01
2016-10-04T03:25:03.945Z,10.06
2016-10-04T03:25:25.655Z,10.10
2016-10-04T03:25:47.365Z,10.11
2016-10-04T03:26:09.079Z,10.15
2016-10-04T03:26:30.789Z,10.13
2016-10-04T03:26:52.517Z,10.10
2016-10-04T03:27:14.229Z,10.06
2016-10-04T03:27:35.937Z,9.96
2016-10-04T03:27:57.658Z,9.92
2016-10-04T03:28:19.378Z,9.86
2016-10-04T03:28:41.083Z,9.87
2016-10-04T03:29:02.793Z,9.85
2016-10-04T03:29:24.517Z,9.90
2016-10-04T03:29:46.225Z,9.96
2016-10-04T03:30:07.936Z,10.03
2016-10-04T03:30:29.646Z,10.01
2016-10-04T03:30:51.366Z,9.99
2016-10-04T03:31:13.075Z,10.04
2016-10-04T03:31:34.783Z,10.02
2016-10-04T03:31:56.501Z,9.99
2016-10-04T03:32:18.206Z,10.04
2016-10-04T03:32:39.920Z,10.07
2016-10-04T03:33:01.628Z,10.05
2016-10-04T03:33:23.340Z,10.08
2016-10-04T03:34:11.541Z,10.02
2016-10-04T03:34:33.272Z,10.02
2016-10-04T03:34:54.975Z,10.01
2016-10-04T03:35:16.697Z,10.04
2016-10-04T03:35:38.411Z,9.99
2016-10-04T03:36:00.124Z,9.88
2016-10-04T03:36:26.611Z,9.79
2016-10-04T03:36:53.095Z,9.79
2016-10-04T03:37:14.803Z,9.86
2016-10-04T03:37:36.526Z,9.86
2016-10-04T03:37:58.241Z,9.90
2016-10-04T03:38:19.948Z,9.87
2016-10-04T03:38:41.668Z,9.85
2016-10-04T03:39:03.392Z,9.92
2016-10-04T03:39:25.102Z,9.97
2016-10-04T03:39:46.818Z,10.01
2016-10-04T03:40:08.537Z,10.03
2016-10-04T03:40:30.244Z,10.00
2016-10-04T03:40:51.961Z,9.99
2016-10-04T03:41:13.669Z,9.97
2016-10-04T03:41:35.395Z,9.96
2016-10-04T03:41:57.104Z,10.02
2016-10-04T03:42:18.807Z,10.01
2016-10-04T03:42:40.532Z,10.02
2016-10-04T03:43:02.226Z,10.04
2016-10-04T03:43:23.941Z,10.03
2016-10-04T03:43:45.658Z,10.05
2016-10-04T03:44:07.374Z,10.10
2016-10-04T03:44:29.091Z,10.13
2016-10-04T03:44:50.799Z,10.11
2016-10-04T03:45:17.289Z,10.15
2016-10-04T03:45:38.992Z,10.21
2016-10-04T03:46:00.702Z,10.20
2016-10-04T03:46:22.410Z,10.22
2016-10-04T03:46:44.134Z,10.19
2016-10-04T03:47:05.843Z,10.17
2016-10-04T03:47:27.555Z,10.11
2016-10-04T03:47:49.273Z,9.98
2016-10-04T03:48:10.988Z,9.89
2016-10-04T03:48:32.695Z,9.88
2016-10-04T03:48:54.412Z,9.91
2016-10-04T03:49:16.125Z,9.97
2016-10-04T03:49:37.849Z,10.03
2016-10-04T03:49:59.564Z,10.11
2016-10-04T03:50:21.270Z,10.16
2016-10-04T03:50:52.543Z,10.19
2016-10-04T03:51:14.253Z,10.16
2016-10-04T03:51:35.958Z,10.10
2016-10-04T03:51:57.680Z,10.01
2016-10-04T03:52:19.402Z,9.93
2016-10-04T03:52:41.112Z,9.86
2016-10-04T03:53:02.831Z,9.80
2016-10-04T03:53:24.559Z,9.81
2016-10-04T03:53:46.268Z,9.83
2016-10-04T03:54:07.977Z,9.90
2016-10-04T03:54:29.703Z,9.90
2016-10-04T03:54:51.414Z,9.85
2016-10-04T03:55:13.125Z,9.85
2016-10-04T03:55:34.851Z,9.85
2016-10-04T03:55:56.577Z,9.84
2016-10-04T03:56:18.285Z,9.80
2016-10-04T03:56:41.008Z,9.79
2016-10-04T03:57:02.716Z,9.84
2016-10-04T03:57:24.431Z,9.93
2016-10-04T03:57:46.143Z,9.95
2016-10-04T03:58:07.855Z,9.94
2016-10-04T03:58:29.564Z,9.91
2016-10-04T03:58:51.273Z,9.92
2016-10-04T03:59:12.989Z,9.95
2016-10-04T03:59:34.710Z,9.95
2016-10-04T03:59:56.418Z,9.96
2016-10-04T04:00:18.127Z,10.00
2016-10-04T04:00:39.849Z,9.96
2016-10-04T04:01:01.565Z,9.93
2016-10-04T04:01:23.268Z,9.87
2016-10-04T04:01:44.997Z,9.88
2016-10-04T04:02:06.717Z,9.90
2016-10-04T04:02:28.430Z,9.90
2016-10-04T04:02:50.144Z,9.87
2016-10-04T04:03:11.876Z,9.83
2016-10-04T04:03:33.581Z,9.82
2016-10-04T04:03:55.290Z,9.88
2016-10-04T04:04:17.006Z,9.84
2016-10-04T04:04:38.718Z,9.77
2016-10-04T04:05:00.429Z,9.69
2016-10-04T04:05:22.139Z,9.70
2016-10-04T04:05:43.858Z,9.70
2016-10-04T04:06:05.567Z,9.74
2016-10-04T04:06:27.283Z,9.75
2016-10-04T04:06:48.991Z,9.79
2016-10-04T04:07:10.701Z,9.82
2016-10-04T04:07:32.421Z,9.84
2016-10-04T04:07:54.130Z,9.83
2016-10-04T04:08:15.853Z,9.88
2016-10-04T04:08:37.567Z,9.92
2016-10-04T04:08:59.276Z,9.94
2016-10-04T04:09:20.996Z,10.01
2016-10-04T04:09:42.709Z,9.99
2016-10-04T04:10:04.420Z,9.99
2016-10-04T04:10:26.123Z,10.02
2016-10-04T04:10:50.253Z,10.07
2016-10-04T04:11:11.963Z,10.04
2016-10-04T04:11:33.667Z,10.00
2016-10-04T04:11:55.380Z,9.93
2016-10-04T04:12:17.094Z,9.91
2016-10-04T04:12:38.813Z,9.90
2016-10-04T04:13:00.516Z,9.89
2016-10-04T04:13:22.226Z,9.90
2016-10-04T04:13:43.935Z,9.90
2016-10-04T04:14:05.642Z,9.85
2016-10-04T04:14:27.354Z,9.79
2016-10-04T04:14:49.067Z,9.81
2016-10-04T04:15:10.780Z,9.85
2016-10-04T04:15:32.497Z,9.93
2016-10-04T04:15:54.213Z,9.97
2016-10-04T04:16:15.922Z,9.97
2016-10-04T04:16:37.767Z,10.00
2016-10-04T04:16:59.475Z,10.08
2016-10-04T04:17:21.191Z,10.10
2016-10-04T04:17:42.899Z,10.08
2016-10-04T04:18:04.612Z,10.08
2016-10-04T04:18:26.329Z,10.04
2016-10-04T04:18:48.040Z,9.99
2016-10-04T04:19:09.751Z,9.92
2016-10-04T04:19:31.468Z,9.94
2016-10-04T04:19:53.176Z,9.98
2016-10-04T04:20:14.884Z,10.01
2016-10-04T04:20:36.612Z,10.03
2016-10-04T04:20:58.335Z,10.02
2016-10-04T04:21:20.045Z,9.95
2016-10-04T04:21:41.754Z,9.90
2016-10-04T04:22:03.478Z,9.82
2016-10-04T04:22:25.187Z,9.80
2016-10-04T04:22:46.892Z,9.77
2016-10-04T04:23:08.609Z,9.77
2016-10-04T04:23:30.331Z,9.80
2016-10-04T04:23:52.037Z,9.80
2016-10-04T04:24:13.756Z,9.85
2016-10-04T04:24:35.468Z,9.97
2016-10-04T04:25:01.955Z,10.01
2016-10-04T04:25:23.668Z,10.05
2016-10-04T04:25:45.399Z,10.01
2016-10-04T04:26:07.101Z,9.97
2016-10-04T04:26:28.810Z,9.94
2016-10-04T04:26:50.517Z,9.98
2016-10-04T04:27:12.235Z,10.01
2016-10-04T04:27:33.957Z,9.99
2016-10-04T04:27:55.667Z,10.01
2016-10-04T04:28:43.870Z,10.06
2016-10-04T04:29:05.579Z,10.11
2016-10-04T04:29:27.302Z,10.16
2016-10-04T04:29:49.016Z,10.17
2016-10-04T04:30:10.725Z,10.17
2016-10-04T04:30:32.441Z,10.14
2016-10-04T04:30:54.153Z,10.16
2016-10-04T04:31:20.646Z,10.16
2016-10-04T04:31:42.359Z,10.18
2016-10-04T04:32:04.072Z,10.13
2016-10-04T04:32:25.782Z,10.08
2016-10-04T04:32:47.496Z,10.01
2016-10-04T04:33:09.203Z,9.92
2016-10-04T04:33:30.913Z,9.87
2016-10-04T04:33:52.648Z,9.86
2016-10-04T04:34:14.338Z,9.84
2016-10-04T04:34:36.046Z,9.91
2016-10-04T04:34:57.755Z,9.98
2016-10-04T04:35:19.476Z,10.02
2016-10-04T04:35:41.201Z,10.02
2016-10-04T04:36:02.907Z,9.97
2016-10-04T04:36:24.655Z,9.90
2016-10-04T04:36:46.371Z,9.81
2016-10-04T04:37:08.073Z,9.83
2016-10-04T04:37:29.780Z,9.84
2016-10-04T04:37:51.493Z,9.84
2016-10-04T04:38:13.207Z,9.84
2016-10-04T04:38:34.923Z,9.84
2016-10-04T04:38:56.643Z,9.79
2016-10-04T04:39:18.356Z,9.78
2016-10-04T04:39:44.841Z,9.72
2016-10-04T04:40:06.555Z,9.74
2016-10-04T04:40:28.269Z,9.79
2016-10-04T04:40:49.982Z,9.84
2016-10-04T04:41:11.697Z,9.93
2016-10-04T04:41:33.403Z,9.98
2016-10-04T04:41:55.113Z,10.06
2016-10-04T04:42:16.824Z,10.08
2016-10-04T04:42:38.534Z,10.08
2016-10-04T04:43:00.242Z,10.11
2016-10-04T04:43:21.961Z,10.09
2016-10-04T04:43:43.675Z,10.05
2016-10-04T04:44:05.384Z,10.00
2016-10-04T04:44:27.099Z,9.96
2016-10-04T04:44:48.802Z,10.05
2016-10-04T04:45:10.519Z,10.04
2016-10-04T04:45:32.225Z,10.05
2016-10-04T04:45:53.942Z,10.06
2016-10-04T04:46:15.652Z,10.03
2016-10-04T04:46:37.357Z,10.04
2016-10-04T04:46:59.080Z,10.03